createdAt,value
2024-03-26T00:01:48.874Z,61.57
2024-03-26T00:04:20.186Z,67.26
2024-03-26T00:06:51.593Z,64.79
2024-03-26T00:09:23.075Z,58.90
2024-03-26T00:11:54.527Z,53.99
2024-03-26T00:14:25.824Z,55.27
2024-03-26T00:16:57.167Z,57.39
2024-03-26T00:19:28.982Z,59.45
2024-03-26T00:21:58.902Z,60.81
2024-03-26T00:24:30.286Z,60.73
2024-03-26T00:27:01.623Z,66.47
2024-03-26T00:29:32.955Z,63.95
2024-03-26T00:32:04.459Z,56.23
2024-03-26T00:34:36.007Z,55.07
2024-03-26T00:37:07.371Z,56.90
2024-03-26T00:39:38.704Z,58.79
2024-03-26T00:42:10.003Z,60.57
2024-03-26T00:44:41.324Z,65.75
2024-03-26T00:47:12.617Z,65.08
2024-03-26T00:49:43.957Z,56.90
2024-03-26T00:52:15.301Z,54.83
2024-03-26T00:54:47.823Z,57.12
2024-03-26T00:57:19.179Z,58.49
2024-03-26T00:59:50.594Z,60.76
2024-03-26T01:02:22.294Z,66.92
2024-03-26T01:04:53.876Z,65.21
2024-03-26T01:07:25.175Z,58.65
2024-03-26T01:09:56.524Z,55.06
2024-03-26T01:12:27.820Z,57.07
2024-03-26T01:14:59.279Z,60.17
2024-03-26T01:17:30.697Z,65.24
2024-03-26T01:20:02.394Z,62.60
2024-03-26T01:22:33.747Z,56.57
2024-03-26T01:25:07.014Z,57.64
2024-03-26T01:27:38.371Z,61.25
2024-03-26T01:30:12.567Z,65.47
2024-03-26T01:32:44.054Z,61.09
2024-03-26T01:35:15.606Z,56.04
2024-03-26T01:37:48.377Z,58.17
2024-03-26T01:40:19.745Z,63.09
2024-03-26T01:42:51.812Z,64.11
2024-03-26T01:45:23.489Z,58.76
2024-03-26T01:47:55.035Z,57.26
2024-03-26T01:50:26.656Z,60.46
2024-03-26T01:52:58.052Z,65.49
2024-03-26T01:55:30.154Z,62.70
2024-03-26T01:58:03.476Z,57.19
2024-03-26T02:00:35.322Z,57.65
2024-03-26T02:03:05.265Z,61.67
2024-03-26T02:05:37.377Z,65.16
2024-03-26T02:08:11.192Z,60.08
2024-03-26T02:10:42.799Z,55.65
2024-03-26T02:13:14.116Z,58.49
2024-03-26T02:15:45.521Z,62.00
2024-03-26T02:18:16.896Z,65.55
2024-03-26T02:20:48.977Z,60.66
2024-03-26T02:23:24.075Z,56.46
2024-03-26T02:25:55.378Z,57.91
2024-03-26T02:28:26.793Z,62.10
2024-03-26T02:30:58.160Z,66.79
2024-03-26T02:33:29.848Z,60.86
2024-03-26T02:36:01.254Z,55.98
2024-03-26T02:38:32.653Z,57.97
2024-03-26T02:41:04.619Z,61.21
2024-03-26T02:43:38.623Z,66.82
2024-03-26T02:46:09.975Z,62.95
2024-03-26T02:48:41.313Z,56.39
2024-03-26T02:51:12.679Z,56.74
2024-03-26T02:53:44.031Z,60.29
2024-03-26T02:56:15.416Z,66.31
2024-03-26T02:58:46.697Z,63.42
2024-03-26T03:01:19.351Z,56.77
2024-03-26T03:04:18.527Z,57.53
2024-03-26T03:06:49.928Z,61.94
2024-03-26T03:09:21.272Z,66.80
2024-03-26T03:11:52.581Z,61.87
2024-03-26T03:14:24.026Z,56.32
2024-03-26T03:16:55.448Z,56.37
2024-03-26T03:19:26.785Z,59.48
2024-03-26T03:21:59.190Z,61.71
2024-03-26T03:24:30.510Z,67.36
2024-03-26T03:27:01.863Z,64.91
2024-03-26T03:29:33.240Z,58.04
2024-03-26T03:32:04.795Z,55.36
2024-03-26T03:34:36.199Z,57.40
2024-03-26T03:37:07.548Z,59.89
2024-03-26T03:39:38.911Z,65.41
2024-03-26T03:42:10.294Z,64.15
2024-03-26T03:44:42.008Z,57.04
2024-03-26T03:47:13.356Z,55.85
2024-03-26T03:49:45.083Z,58.17
2024-03-26T03:52:16.753Z,60.35
2024-03-26T03:54:48.045Z,65.50
2024-03-26T03:57:19.609Z,63.82
2024-03-26T03:59:51.415Z,56.44
2024-03-26T04:02:22.747Z,55.53
2024-03-26T04:04:54.079Z,58.25
2024-03-26T04:07:25.554Z,60.47
2024-03-26T04:09:57.277Z,65.67
2024-03-26T04:12:29.449Z,63.80
2024-03-26T04:15:00.783Z,56.75
2024-03-26T04:17:32.134Z,55.67
2024-03-26T04:20:03.531Z,58.64
2024-03-26T04:22:35.270Z,62.05
2024-03-26T04:25:07.430Z,64.41
2024-03-26T04:27:39.065Z,58.46
2024-03-26T04:30:11.776Z,56.89
2024-03-26T04:32:43.280Z,59.97
2024-03-26T04:35:14.682Z,66.21
2024-03-26T04:37:45.990Z,63.29
2024-03-26T04:40:18.682Z,58.35
2024-03-26T04:42:50.002Z,56.53
2024-03-26T04:45:21.364Z,59.11
2024-03-26T04:47:52.747Z,64.37
2024-03-26T04:50:24.088Z,65.95
2024-03-26T04:52:55.993Z,58.75
2024-03-26T04:55:26.526Z,55.57
2024-03-26T04:57:58.080Z,58.61
2024-03-26T05:00:29.653Z,62.76
2024-03-26T05:03:03.032Z,66.75
2024-03-26T05:05:34.816Z,62.63
2024-03-26T05:08:05.119Z,57.48
2024-03-26T05:10:36.674Z,57.48
2024-03-26T05:13:08.234Z,60.67
2024-03-26T05:15:39.784Z,66.14
2024-03-26T05:18:11.541Z,63.60
2024-03-26T05:20:43.097Z,58.05
2024-03-26T05:23:15.723Z,56.48
2024-03-26T05:25:47.231Z,59.44
2024-03-26T05:28:18.795Z,61.62
2024-03-26T05:30:51.163Z,68.23
2024-03-26T05:33:22.717Z,65.79
2024-03-26T05:35:54.299Z,59.18
2024-03-26T05:38:25.825Z,55.02
2024-03-26T05:40:58.209Z,57.04
2024-03-26T05:43:29.759Z,58.54
2024-03-26T05:46:01.220Z,63.95
2024-03-26T05:48:32.651Z,63.54
2024-03-26T05:51:04.057Z,58.14
2024-03-26T05:53:35.448Z,55.44
2024-03-26T05:56:09.224Z,58.22
2024-03-26T05:58:41.965Z,60.14
2024-03-26T06:01:13.336Z,65.97
2024-03-26T06:03:45.177Z,64.01
2024-03-26T06:06:15.243Z,56.57
2024-03-26T06:08:46.641Z,55.51
2024-03-26T06:11:18.016Z,58.06
2024-03-26T06:13:49.393Z,60.38
2024-03-26T06:16:21.537Z,65.89
2024-03-26T06:18:52.960Z,63.81
2024-03-26T06:21:24.296Z,55.37
2024-03-26T06:23:55.976Z,55.11
2024-03-26T06:26:27.415Z,57.75
2024-03-26T06:28:58.913Z,60.23
2024-03-26T06:31:30.227Z,65.02
2024-03-26T06:34:01.589Z,63.35
2024-03-26T06:36:32.915Z,55.60
2024-03-26T06:39:05.318Z,55.72
2024-03-26T06:41:36.869Z,59.10
2024-03-26T06:44:08.346Z,61.42
2024-03-26T06:46:40.572Z,65.52
2024-03-26T06:49:14.233Z,63.62
2024-03-26T06:51:46.096Z,55.72
2024-03-26T06:54:18.780Z,54.41
2024-03-26T06:56:50.319Z,57.36
2024-03-26T06:59:21.623Z,60.06
2024-03-26T07:01:52.950Z,61.33
2024-03-26T07:04:24.284Z,66.69
2024-03-26T07:06:55.563Z,63.54
2024-03-26T07:09:27.127Z,56.55
2024-03-26T07:11:58.460Z,54.71
2024-03-26T07:14:29.850Z,56.96
2024-03-26T07:17:01.146Z,58.82
2024-03-26T07:19:32.535Z,60.77
2024-03-26T07:22:04.854Z,65.32
2024-03-26T07:24:36.992Z,60.90
2024-03-26T07:27:08.343Z,53.81
2024-03-26T07:29:40.323Z,55.22
2024-03-26T07:32:11.656Z,57.10
2024-03-26T07:34:44.002Z,59.26
2024-03-26T07:37:16.529Z,60.69
2024-03-26T07:39:48.314Z,64.98
2024-03-26T07:42:19.591Z,62.84
2024-03-26T07:44:51.835Z,55.01
2024-03-26T07:47:23.462Z,54.36
2024-03-26T07:49:53.400Z,55.97
2024-03-26T07:52:24.876Z,56.78
2024-03-26T07:54:56.319Z,59.89
2024-03-26T07:57:27.645Z,60.21
2024-03-26T07:59:58.983Z,64.83
2024-03-26T08:02:30.551Z,62.98
2024-03-26T08:05:01.792Z,55.99
2024-03-26T08:07:33.307Z,55.18
2024-03-26T08:10:05.002Z,57.30
2024-03-26T08:12:34.838Z,59.13
2024-03-26T08:15:08.315Z,61.04
2024-03-26T08:17:41.870Z,61.53
2024-03-26T08:20:15.150Z,62.02
2024-03-26T08:22:46.670Z,65.12
2024-03-26T08:25:18.709Z,60.08
2024-03-26T08:27:49.998Z,55.30
2024-03-26T08:30:21.601Z,55.89
2024-03-26T08:32:54.246Z,58.07
2024-03-26T08:35:25.708Z,59.61
2024-03-26T08:37:57.017Z,62.49
2024-03-26T08:40:28.331Z,55.92
2024-03-26T08:42:59.691Z,54.62
2024-03-26T08:45:31.016Z,56.48
2024-03-26T08:48:02.448Z,58.47
2024-03-26T08:50:33.863Z,60.20
2024-03-26T08:53:06.008Z,61.03
2024-03-26T08:55:37.558Z,64.52
2024-03-26T08:58:09.531Z,62.40
2024-03-26T09:00:41.492Z,53.77
2024-03-26T09:03:11.614Z,52.70
2024-03-26T09:05:43.172Z,54.33
2024-03-26T09:08:13.296Z,56.71
2024-03-26T09:10:44.847Z,57.11
2024-03-26T09:13:14.968Z,58.48
2024-03-26T09:15:46.727Z,58.04
2024-03-26T09:18:18.289Z,58.51
2024-03-26T09:20:48.409Z,58.42
2024-03-26T09:23:19.963Z,58.03
2024-03-26T09:25:51.734Z,60.01
2024-03-26T09:28:23.273Z,60.63
2024-03-26T09:30:53.401Z,64.89
2024-03-26T09:33:25.368Z,62.35
2024-03-26T09:35:56.921Z,50.68
2024-03-26T09:38:39.645Z,49.99
2024-03-26T09:41:18.578Z,51.77
2024-03-26T09:43:50.976Z,52.88
2024-03-26T09:46:23.890Z,53.49
2024-03-26T09:48:56.552Z,55.15
2024-03-26T09:51:29.124Z,56.29
2024-03-26T09:54:01.861Z,56.56
2024-03-26T09:56:33.325Z,56.03
2024-03-26T09:59:03.456Z,56.66
2024-03-26T10:01:37.867Z,55.93
2024-03-26T10:04:10.759Z,56.92
2024-03-26T10:06:43.074Z,55.12
2024-03-26T10:09:16.634Z,54.47
2024-03-26T10:11:49.412Z,54.70
2024-03-26T10:14:22.213Z,54.43
2024-03-26T10:16:53.959Z,54.39
2024-03-26T10:19:26.132Z,55.02
2024-03-26T10:21:57.695Z,53.27
2024-03-26T10:24:29.043Z,53.62
2024-03-26T10:26:59.606Z,53.67
2024-03-26T10:29:31.228Z,53.40
2024-03-26T10:32:02.749Z,51.41
2024-03-26T10:34:37.956Z,51.33
2024-03-26T10:37:11.168Z,51.46
2024-03-26T10:39:48.356Z,50.81
2024-03-26T10:42:21.384Z,48.96
2024-03-26T10:44:59.410Z,47.24
2024-03-26T10:47:38.585Z,47.78
2024-03-26T10:50:11.608Z,47.65
2024-03-26T10:52:46.241Z,46.94
2024-03-26T10:55:18.960Z,45.77
2024-03-26T10:57:51.205Z,44.47
2024-03-26T11:00:22.813Z,44.16
2024-03-26T11:02:58.411Z,43.51
2024-03-26T11:05:33.702Z,40.55
2024-03-26T11:08:06.921Z,39.24
2024-03-26T11:11:01.313Z,36.55
2024-03-26T11:13:35.089Z,33.45
2024-03-26T11:16:10.467Z,31.86
2024-03-26T11:18:45.966Z,29.50
2024-03-26T11:21:18.828Z,27.90
2024-03-26T11:23:50.996Z,25.13
2024-03-26T11:26:27.061Z,23.51
2024-03-26T11:29:01.686Z,22.73
2024-03-26T11:31:34.468Z,21.79
2024-03-26T11:34:08.796Z,21.69
2024-03-26T11:36:40.653Z,21.59
2024-03-26T11:39:12.823Z,21.01
2024-03-26T11:41:46.837Z,20.65
2024-03-26T11:44:18.392Z,20.42
2024-03-26T11:46:50.156Z,20.27
2024-03-26T11:49:22.730Z,19.96
2024-03-26T11:51:54.285Z,19.04
2024-03-26T11:54:26.592Z,17.93
2024-03-26T11:56:58.420Z,16.99
2024-03-26T11:59:31.006Z,17.09
2024-03-26T12:02:03.393Z,17.08
2024-03-26T12:04:34.928Z,16.97
2024-03-26T12:07:08.844Z,17.00
2024-03-26T12:09:42.402Z,16.86
2024-03-26T12:12:17.435Z,16.54
2024-03-26T12:14:50.359Z,16.00
2024-03-26T12:17:22.143Z,15.74
2024-03-26T12:19:53.684Z,15.05
2024-03-26T12:22:25.332Z,14.98
2024-03-26T12:24:57.205Z,14.66
2024-03-26T12:27:28.786Z,14.62
2024-03-26T12:30:01.413Z,13.65
2024-03-26T12:32:35.152Z,13.30
2024-03-26T12:35:07.960Z,13.47
2024-03-26T12:37:40.715Z,13.11
2024-03-26T12:40:14.162Z,12.64
2024-03-26T12:42:46.489Z,12.67
2024-03-26T12:45:18.303Z,12.35
2024-03-26T12:47:50.143Z,12.15
2024-03-26T12:50:22.363Z,11.83
2024-03-26T12:52:53.903Z,11.58
2024-03-26T12:55:25.368Z,11.65
2024-03-26T12:57:56.731Z,11.85
2024-03-26T13:00:28.275Z,11.77
2024-03-26T13:02:59.746Z,11.82
2024-03-26T13:05:31.206Z,11.73
2024-03-26T13:08:02.625Z,11.97
2024-03-26T13:10:34.106Z,12.27
2024-03-26T13:13:05.578Z,12.82
2024-03-26T13:15:36.990Z,13.50
2024-03-26T13:18:08.783Z,13.61
2024-03-26T13:20:41.551Z,13.86
2024-03-26T13:23:12.857Z,13.64
2024-03-26T13:25:44.245Z,13.24
2024-03-26T13:28:15.637Z,13.00
2024-03-26T13:30:47.486Z,12.81
2024-03-26T13:33:18.825Z,12.69
2024-03-26T13:35:50.220Z,12.65
2024-03-26T13:38:21.606Z,12.25
2024-03-26T13:40:55.991Z,12.69
2024-03-26T13:43:31.349Z,13.42
2024-03-26T13:46:02.717Z,14.24
2024-03-26T13:48:37.134Z,15.04
2024-03-26T13:51:10.087Z,15.88
2024-03-26T13:53:41.925Z,16.46
2024-03-26T13:56:13.250Z,16.97
2024-03-26T13:58:44.829Z,17.36
2024-03-26T14:01:16.595Z,17.73
2024-03-26T14:03:48.148Z,18.00
2024-03-26T14:06:19.703Z,18.47
2024-03-26T14:08:51.313Z,18.98
2024-03-26T14:11:23.026Z,19.45
2024-03-26T14:13:54.579Z,19.54
2024-03-26T14:16:26.543Z,19.42
2024-03-26T14:18:58.102Z,19.52
2024-03-26T14:21:29.654Z,19.85
2024-03-26T14:24:01.211Z,20.26
2024-03-26T14:26:32.766Z,20.66
2024-03-26T14:29:05.963Z,20.63
2024-03-26T14:31:38.129Z,20.59
2024-03-26T14:34:09.687Z,20.47
2024-03-26T14:36:41.087Z,20.37
2024-03-26T14:39:12.429Z,20.82
2024-03-26T14:41:43.945Z,20.96
2024-03-26T14:44:18.801Z,21.04
2024-03-26T14:46:50.333Z,21.09
2024-03-26T14:49:22.541Z,21.15
2024-03-26T14:51:54.063Z,21.44
2024-03-26T14:54:25.617Z,21.64
2024-03-26T14:56:57.172Z,21.87
2024-03-26T14:59:29.341Z,22.17
2024-03-26T15:02:01.305Z,22.37
2024-03-26T15:04:32.867Z,22.44
2024-03-26T15:07:08.042Z,22.78
2024-03-26T15:09:39.461Z,23.06
2024-03-26T15:12:11.966Z,23.11
2024-03-26T15:14:43.806Z,23.40
2024-03-26T15:17:15.354Z,23.57
2024-03-26T15:19:47.250Z,23.60
2024-03-26T15:22:18.675Z,23.86
2024-03-26T15:24:50.227Z,24.33
2024-03-26T15:27:40.214Z,24.51
2024-03-26T15:30:32.254Z,24.77
2024-03-26T15:33:04.227Z,25.10
2024-03-26T15:35:35.776Z,25.46
2024-03-26T15:38:07.944Z,25.97
2024-03-26T15:40:40.154Z,26.46
2024-03-26T15:43:11.674Z,26.68
2024-03-26T15:45:46.820Z,27.09
2024-03-26T15:48:18.265Z,27.77
2024-03-26T15:50:49.829Z,28.18
2024-03-26T15:53:21.377Z,28.73
2024-03-26T15:55:53.082Z,28.91
2024-03-26T15:58:24.929Z,29.69
2024-03-26T16:00:56.664Z,30.07
2024-03-26T16:03:28.269Z,30.59
2024-03-26T16:06:00.183Z,31.28
2024-03-26T16:08:31.751Z,31.48
2024-03-26T16:11:13.145Z,31.76
2024-03-26T16:13:45.534Z,31.56
2024-03-26T16:16:17.399Z,32.26
2024-03-26T16:18:49.232Z,32.63
2024-03-26T16:21:20.804Z,32.59
2024-03-26T16:23:52.369Z,32.84
2024-03-26T16:26:23.902Z,32.90
2024-03-26T16:28:58.606Z,33.10
2024-03-26T16:31:30.706Z,33.70
2024-03-26T16:34:03.903Z,34.00
2024-03-26T16:36:35.859Z,33.99
2024-03-26T16:39:08.971Z,33.86
2024-03-26T16:41:45.145Z,34.17
2024-03-26T16:44:17.691Z,34.66
2024-03-26T16:46:50.273Z,34.73
2024-03-26T16:49:21.829Z,35.00
2024-03-26T16:51:55.322Z,35.26
2024-03-26T16:54:26.787Z,35.33
2024-03-26T16:56:58.343Z,35.34
2024-03-26T16:59:30.126Z,35.91
2024-03-26T17:02:01.660Z,36.16
2024-03-26T17:04:34.036Z,36.30
2024-03-26T17:07:06.000Z,36.63
2024-03-26T17:09:37.559Z,36.62
2024-03-26T17:12:09.886Z,36.62
2024-03-26T17:14:41.491Z,37.16
2024-03-26T17:17:14.856Z,37.58
2024-03-26T17:19:47.273Z,37.97
2024-03-26T17:22:18.841Z,38.40
2024-03-26T17:24:50.380Z,38.63
2024-03-26T17:27:22.142Z,39.20
2024-03-26T17:29:53.692Z,39.48
2024-03-26T17:32:25.462Z,39.33
2024-03-26T17:34:57.418Z,40.02
2024-03-26T17:37:28.977Z,40.52
2024-03-26T17:40:00.528Z,40.52
2024-03-26T17:42:34.274Z,40.76
2024-03-26T17:45:06.820Z,41.10
2024-03-26T17:47:39.599Z,41.44
2024-03-26T17:50:12.294Z,41.64
2024-03-26T17:52:46.370Z,41.48
2024-03-26T17:55:18.501Z,41.83
2024-03-26T17:57:50.034Z,42.13
2024-03-26T18:00:22.282Z,42.13
2024-03-26T18:02:53.760Z,41.99
2024-03-26T18:05:25.514Z,42.36
2024-03-26T18:07:55.643Z,42.61
2024-03-26T18:10:27.197Z,42.77
2024-03-26T18:12:57.317Z,42.65
2024-03-26T18:15:30.519Z,42.63
2024-03-26T18:18:02.069Z,42.60
2024-03-26T18:20:36.900Z,42.80
2024-03-26T18:23:09.485Z,42.59
2024-03-26T18:25:41.037Z,42.90
2024-03-26T18:28:12.594Z,42.88
2024-03-26T18:30:44.148Z,42.97
2024-03-26T18:33:15.718Z,43.13
2024-03-26T18:35:57.469Z,43.03
2024-03-26T18:38:31.932Z,43.04
2024-03-26T18:41:07.376Z,43.03
2024-03-26T18:43:41.599Z,43.15
2024-03-26T18:46:14.398Z,43.12
2024-03-26T18:48:47.368Z,43.43
2024-03-26T18:51:18.971Z,43.65
2024-03-26T18:53:50.480Z,43.73
2024-03-26T18:56:20.610Z,43.63
2024-03-26T18:58:52.363Z,43.84
2024-03-26T19:01:26.118Z,44.25
2024-03-26T19:03:57.728Z,44.19
2024-03-26T19:06:29.404Z,44.47
2024-03-26T19:09:02.319Z,44.13
2024-03-26T19:11:35.167Z,44.26
2024-03-26T19:14:06.612Z,44.87
2024-03-26T19:16:38.373Z,44.80
2024-03-26T19:19:10.019Z,45.04
2024-03-26T19:21:41.495Z,45.26
2024-03-26T19:24:13.246Z,45.36
2024-03-26T19:26:44.803Z,45.46
2024-03-26T19:29:16.568Z,45.42
2024-03-26T19:31:48.736Z,45.70
2024-03-26T19:34:19.985Z,45.57
2024-03-26T19:36:56.574Z,45.32
2024-03-26T19:39:28.126Z,45.58
2024-03-26T19:41:59.672Z,45.67
2024-03-26T19:44:30.404Z,45.83
2024-03-26T19:47:01.969Z,45.84
2024-03-26T19:49:33.525Z,45.89
2024-03-26T19:52:05.625Z,46.25
2024-03-26T19:54:37.867Z,46.35
2024-03-26T19:57:09.413Z,46.51
2024-03-26T19:59:39.545Z,46.50
2024-03-26T20:02:11.295Z,46.74
2024-03-26T20:04:42.854Z,46.89
2024-03-26T20:07:18.306Z,46.91
2024-03-26T20:09:50.687Z,47.07
2024-03-26T20:12:22.682Z,46.96
2024-03-26T20:14:54.818Z,47.10
2024-03-26T20:17:26.996Z,47.27
2024-03-26T20:19:58.541Z,47.48
2024-03-26T20:22:30.502Z,47.59
2024-03-26T20:25:02.815Z,47.89
2024-03-26T20:27:34.434Z,47.93
2024-03-26T20:30:10.289Z,48.21
2024-03-26T20:32:41.851Z,48.55
2024-03-26T20:35:12.595Z,47.98
2024-03-26T20:37:46.014Z,48.36
2024-03-26T20:40:17.691Z,48.99
2024-03-26T20:42:49.300Z,48.96
2024-03-26T20:45:20.875Z,48.92
2024-03-26T20:47:52.410Z,49.17
2024-03-26T20:50:22.327Z,49.18
2024-03-26T20:52:53.897Z,49.44
2024-03-26T20:55:25.441Z,49.57
2024-03-26T20:57:55.565Z,49.62
2024-03-26T21:00:27.134Z,49.76
2024-03-26T21:02:57.791Z,49.75
2024-03-26T21:05:29.413Z,49.90
2024-03-26T21:08:00.968Z,50.39
2024-03-26T21:10:33.164Z,50.32
2024-03-26T21:13:05.242Z,50.38
2024-03-26T21:15:36.870Z,50.32
2024-03-26T21:18:14.154Z,50.63
2024-03-26T21:20:51.039Z,51.05
2024-03-26T21:23:22.794Z,51.05
2024-03-26T21:25:54.354Z,51.43
2024-03-26T21:28:25.908Z,51.67
2024-03-26T21:31:01.496Z,51.45
2024-03-26T21:33:33.116Z,51.55
2024-03-26T21:36:04.389Z,52.05
2024-03-26T21:38:36.226Z,52.12
2024-03-26T21:41:08.461Z,52.24
2024-03-26T21:43:40.988Z,52.53
2024-03-26T21:46:12.536Z,52.61
2024-03-26T21:48:44.088Z,52.74
2024-03-26T21:51:19.370Z,52.55
2024-03-26T21:53:51.706Z,52.73
2024-03-26T21:56:23.884Z,52.68
2024-03-26T21:58:55.635Z,52.83
2024-03-26T22:01:25.555Z,52.77
2024-03-26T22:03:57.116Z,52.90
2024-03-26T22:06:27.434Z,53.25
2024-03-26T22:08:57.559Z,53.23
2024-03-26T22:11:29.124Z,53.53
2024-03-26T22:13:59.239Z,53.02
2024-03-26T22:16:30.797Z,53.31
2024-03-26T22:19:01.328Z,53.52
2024-03-26T22:21:32.882Z,53.59
2024-03-26T22:24:03.966Z,53.59
2024-03-26T22:26:35.715Z,53.79
2024-03-26T22:29:07.348Z,53.91
2024-03-26T22:31:37.264Z,53.85
2024-03-26T22:34:09.434Z,54.09
2024-03-26T22:36:41.194Z,54.14
2024-03-26T22:39:11.728Z,54.30
2024-03-26T22:41:43.283Z,54.30
2024-03-26T22:44:13.200Z,54.49
2024-03-26T22:46:44.758Z,54.31
2024-03-26T22:49:14.671Z,54.32
2024-03-26T22:51:46.229Z,54.10
2024-03-26T22:54:18.001Z,54.59
2024-03-26T22:56:52.519Z,54.10
2024-03-26T22:59:26.437Z,54.81
2024-03-26T23:01:58.186Z,54.48
2024-03-26T23:04:30.158Z,54.78
2024-03-26T23:07:01.713Z,54.86
2024-03-26T23:09:31.835Z,54.89
2024-03-26T23:12:03.388Z,55.02
2024-03-26T23:14:34.943Z,55.05
2024-03-26T23:17:04.856Z,55.21
2024-03-26T23:19:36.153Z,55.27
2024-03-26T23:22:08.223Z,55.37
2024-03-26T23:24:39.736Z,55.34
2024-03-26T23:27:11.293Z,55.26
2024-03-26T23:29:42.846Z,55.27
2024-03-26T23:32:15.024Z,55.35
2024-03-26T23:34:46.575Z,55.49
2024-03-26T23:37:18.131Z,55.59
2024-03-26T23:39:48.661Z,55.73
2024-03-26T23:42:18.481Z,55.19
2024-03-26T23:44:49.938Z,55.58
2024-03-26T23:47:22.103Z,55.67
2024-03-26T23:49:54.275Z,55.71
2024-03-26T23:52:25.837Z,55.47
2024-03-26T23:54:57.795Z,55.40
2024-03-26T23:57:29.577Z,56.83
